Time;durP1;ratioP1;P1;durP2;ratioP2;P2;SDS_P1;SDS_P2;PMS_P1;PMS_P2;Temp;Humidity;BMP_temperature;BMP_pressure;BME280_temperature;BME280_humidity;BME280_pressure;Samples;Min_cycle;Max_cycle;Signal;HPM_P1;HPM_P2
2021/10/28 00:13:08;;;;;;;;;;;23.40;45.50;;;;;;1556918;74;1897;-67
2021/10/28 00:15:10;;;;;;;;;;;23.40;45.50;;;;;;1554614;74;1887;-66
2021/10/28 00:17:16;;;;;;;;;;;23.40;45.50;;;;;;1582220;74;1609;-65
2021/10/28 00:19:13;;;;;;;;;;;23.40;45.50;;;;;;1541545;75;1640;-68
2021/10/28 00:21:15;;;;;;;;;;;23.40;45.50;;;;;;1548785;75;667;-66
2021/10/28 00:23:17;;;;;;;;;;;23.30;45.50;;;;;;1540564;75;731;-64
2021/10/28 00:25:19;;;;;;;;;;;23.30;45.50;;;;;;1541169;75;1161;-63
2021/10/28 00:27:23;;;;;;;;;;;23.40;45.50;;;;;;1540935;75;716;-64
2021/10/28 00:29:26;;;;;;;;;;;23.40;45.50;;;;;;1543720;75;1664;-66
2021/10/28 00:31:29;;;;;;;;;;;23.40;45.50;;;;;;1544193;75;739;-65
2021/10/28 00:33:31;;;;;;;;;;;23.40;45.50;;;;;;1547200;75;1942;-68
2021/10/28 00:35:35;;;;;;;;;;;23.40;45.50;;;;;;1535185;75;1135;-66
2021/10/28 00:37:37;;;;;;;;;;;23.40;45.60;;;;;;1574146;74;800;-67
2021/10/28 00:39:39;;;;;;;;;;;23.40;45.60;;;;;;1550261;75;699;-66
2021/10/28 00:41:41;;;;;;;;;;;23.40;45.70;;;;;;1560189;74;719;-66
2021/10/28 00:43:48;;;;;;;;;;;23.40;45.60;;;;;;1577760;74;771;-67
2021/10/28 00:45:50;;;;;;;;;;;23.30;45.60;;;;;;1542549;75;1121;-67
2021/10/28 00:47:52;;;;;;;;;;;23.40;45.70;;;;;;1590488;74;895;-64
2021/10/28 00:49:54;;;;;;;;;;;23.40;45.90;;;;;;1538235;75;706;-66
2021/10/28 00:51:56;;;;;;;;;;;23.30;46.00;;;;;;1576128;74;757;-65
2021/10/28 00:53:58;;;;;;;;;;;23.30;46.00;;;;;;1590437;74;1932;-67
2021/10/28 00:56:00;;;;;;;;;;;23.30;46.00;;;;;;1585984;74;1042;-64
2021/10/28 00:58:02;;;;;;;;;;;23.30;46.00;;;;;;1543281;75;795;-65
2021/10/28 01:00:05;;;;;;;;;;;23.30;46.10;;;;;;1590303;74;778;-65
2021/10/28 01:02:07;;;;;;;;;;;23.30;46.20;;;;;;1581939;74;764;-64
2021/10/28 01:04:09;;;;;;;;;;;23.30;46.10;;;;;;1583142;74;800;-66
2021/10/28 01:06:12;;;;;;;;;;;23.30;46.00;;;;;;1578343;74;1093;-67
2021/10/28 01:08:17;;;;;;;;;;;23.30;46.00;;;;;;1582532;74;810;-65
2021/10/28 01:10:19;;;;;;;;;;;23.30;46.00;;;;;;1584003;74;779;-66
2021/10/28 01:12:21;;;;;;;;;;;23.40;46.10;;;;;;1580551;74;1950;-63
2021/10/28 01:14:23;;;;;;;;;;;23.40;46.20;;;;;;1581880;74;807;-68
2021/10/28 01:16:25;;;;;;;;;;;23.30;46.20;;;;;;1576429;74;1172;-66
2021/10/28 01:18:28;;;;;;;;;;;23.30;46.20;;;;;;1552480;75;803;-65
2021/10/28 01:20:30;;;;;;;;;;;23.30;46.20;;;;;;1589189;74;784;-64
2021/10/28 01:22:32;;;;;;;;;;;23.30;46.10;;;;;;1582571;74;871;-63
2021/10/28 01:24:34;;;;;;;;;;;23.30;46.20;;;;;;1573688;74;791;-67
2021/10/28 01:26:36;;;;;;;;;;;23.30;46.10;;;;;;1588758;74;1127;-66
2021/10/28 01:28:39;;;;;;;;;;;23.30;46.00;;;;;;1595922;74;782;-66
2021/10/28 01:30:41;;;;;;;;;;;23.30;46.00;;;;;;1576088;74;798;-65
2021/10/28 01:32:43;;;;;;;;;;;23.30;46.00;;;;;;1589747;74;1949;-66
2021/10/28 01:34:45;;;;;;;;;;;23.40;45.90;;;;;;1586109;74;1143;-65
2021/10/28 01:36:47;;;;;;;;;;;23.30;45.90;;;;;;1583813;74;787;-67
2021/10/28 01:38:49;;;;;;;;;;;23.30;45.90;;;;;;1596280;74;793;-65
2021/10/28 01:40:58;;;;;;;;;;;23.30;45.90;;;;;;1579084;74;796;-68
2021/10/28 01:43:00;;;;;;;;;;;23.30;45.90;;;;;;1580594;74;734;-65
2021/10/28 01:45:02;;;;;;;;;;;23.30;45.90;;;;;;1584038;74;1148;-69
2021/10/28 01:47:04;;;;;;;;;;;23.30;45.80;;;;;;1578967;74;756;-65
2021/10/28 01:49:06;;;;;;;;;;;23.30;45.80;;;;;;1572044;74;744;-65
2021/10/28 01:51:08;;;;;;;;;;;23.30;45.80;;;;;;1594557;74;856;-65
2021/10/28 01:53:10;;;;;;;;;;;23.30;45.80;;;;;;1577989;74;1935;-65
2021/10/28 01:55:12;;;;;;;;;;;23.30;45.80;;;;;;1573893;74;1144;-65
2021/10/28 01:57:21;;;;;;;;;;;23.20;45.90;;;;;;1568551;74;756;-65
2021/10/28 01:59:23;;;;;;;;;;;23.20;45.70;;;;;;1572629;74;795;-65
2021/10/28 02:01:25;;;;;;;;;;;23.20;45.80;;;;;;1588764;74;787;-66
2021/10/28 02:03:27;;;;;;;;;;;23.30;45.80;;;;;;1581834;74;720;-65
2021/10/28 02:05:29;;;;;;;;;;;23.20;45.70;;;;;;1573850;74;1141;-65
2021/10/28 02:07:31;;;;;;;;;;;23.20;45.80;;;;;;1582607;74;726;-67
2021/10/28 02:09:33;;;;;;;;;;;23.30;45.90;;;;;;1566171;74;798;-67
2021/10/28 02:11:35;;;;;;;;;;;23.20;45.80;;;;;;1576119;74;827;-69
2021/10/28 02:13:37;;;;;;;;;;;23.30;46.00;;;;;;1548029;75;2039;-68
2021/10/28 02:15:39;;;;;;;;;;;23.20;45.90;;;;;;1571644;71;2084;-67
2021/10/28 02:17:41;;;;;;;;;;;23.30;46.00;;;;;;1534759;76;707;-70
2021/10/28 02:19:42;;;;;;;;;;;23.20;45.80;;;;;;1536494;76;784;-66
2021/10/28 02:21:44;;;;;;;;;;;23.20;45.90;;;;;;1535458;76;731;-67
2021/10/28 02:23:46;;;;;;;;;;;23.30;46.00;;;;;;1529363;76;681;-66
2021/10/28 02:25:48;;;;;;;;;;;23.30;46.00;;;;;;1530629;77;1222;-68
2021/10/28 02:27:50;;;;;;;;;;;23.30;46.10;;;;;;1536709;76;742;-70
2021/10/28 02:29:52;;;;;;;;;;;23.30;46.20;;;;;;1536643;76;819;-71
2021/10/28 02:31:54;;;;;;;;;;;23.40;46.30;;;;;;1536077;76;722;-68
2021/10/28 02:33:56;;;;;;;;;;;23.40;46.30;;;;;;1536244;76;1944;-69
2021/10/28 02:35:58;;;;;;;;;;;23.30;46.30;;;;;;1536474;77;1143;-68
2021/10/28 02:37:59;;;;;;;;;;;23.30;46.30;;;;;;1536678;77;789;-68
2021/10/28 02:40:02;;;;;;;;;;;23.30;46.30;;;;;;1536686;76;731;-67
2021/10/28 02:42:04;;;;;;;;;;;23.40;46.30;;;;;;1541931;76;612;-68
2021/10/28 02:44:06;;;;;;;;;;;23.50;46.40;;;;;;1538582;76;633;-67
2021/10/28 02:46:08;;;;;;;;;;;23.50;46.20;;;;;;1517709;76;1100;-67
2021/10/28 02:48:10;;;;;;;;;;;23.60;46.00;;;;;;1521371;76;727;-67
2021/10/28 02:50:12;;;;;;;;;;;23.60;45.90;;;;;;1517467;77;798;-66
2021/10/28 02:52:14;;;;;;;;;;;23.60;45.70;;;;;;1535537;76;675;-69
2021/10/28 02:54:17;;;;;;;;;;;23.70;46.00;;;;;;1532304;76;1940;-69
2021/10/28 02:56:19;;;;;;;;;;;23.60;46.00;;;;;;1533098;76;1126;-70
2021/10/28 02:58:21;;;;;;;;;;;23.60;46.00;;;;;;1528877;76;808;-69
2021/10/28 03:00:23;;;;;;;;;;;23.60;46.20;;;;;;1532969;76;843;-70
2021/10/28 03:02:25;;;;;;;;;;;23.50;46.30;;;;;;1536603;76;769;-70
2021/10/28 03:04:27;;;;;;;;;;;23.50;46.60;;;;;;1536416;76;808;-67
2021/10/28 03:06:29;;;;;;;;;;;23.50;46.80;;;;;;1536217;77;1147;-71
2021/10/28 03:08:32;;;;;;;;;;;23.50;46.80;;;;;;1536644;76;732;-69
2021/10/28 03:10:34;;;;;;;;;;;23.40;46.90;;;;;;1535487;76;864;-69
2021/10/28 03:12:38;;;;;;;;;;;23.40;47.00;;;;;;1532132;76;685;-70
2021/10/28 03:14:55;;;;;;;;;;;23.40;47.00;;;;;;1530043;76;1921;-69
2021/10/28 03:25:57;;;;;;;;;;;23.30;47.20;;;;;;1491733;76;1152;-69
2021/10/28 03:28:02;;;;;;;;;;;23.30;47.30;;;;;;1535202;76;740;-71
2021/10/28 03:30:02;;;;;;;;;;;23.40;47.30;;;;;;1535408;77;1701;-70
2021/10/28 03:32:04;;;;;;;;;;;23.30;47.30;;;;;;1536726;77;727;-72
2021/10/28 03:34:06;;;;;;;;;;;23.30;47.30;;;;;;1536488;77;1939;-70
2021/10/28 03:36:13;;;;;;;;;;;23.30;47.40;;;;;;1527419;76;1137;-72
2021/10/28 03:38:20;;;;;;;;;;;23.30;47.30;;;;;;1534662;77;1694;-70
2021/10/28 04:21:02;;;;;;;;;;;23.90;46.00;;;;;;1516578;76;857;-70
2021/10/28 04:29:23;;;;;;;;;;;23.70;46.30;;;;;;1525506;76;1646;-71
2021/10/28 04:31:27;;;;;;;;;;;23.70;46.40;;;;;;1532281;76;780;-71
2021/10/28 04:33:29;;;;;;;;;;;23.70;46.50;;;;;;1530738;76;1908;-66
2021/10/28 04:35:30;;;;;;;;;;;23.60;46.40;;;;;;1536668;76;1143;-67
2021/10/28 04:37:32;;;;;;;;;;;23.70;46.60;;;;;;1531255;76;714;-67
2021/10/28 04:39:34;;;;;;;;;;;23.90;46.30;;;;;;1529211;76;767;-67
2021/10/28 04:41:36;;;;;;;;;;;23.90;46.00;;;;;;1536299;77;704;-69
2021/10/28 04:43:38;;;;;;;;;;;23.90;45.90;;;;;;1538190;77;803;-68
2021/10/28 04:45:41;;;;;;;;;;;24.00;45.70;;;;;;1534740;77;1166;-67
2021/10/28 04:47:43;;;;;;;;;;;24.00;45.40;;;;;;1518440;76;788;-68
2021/10/28 04:49:44;;;;;;;;;;;24.00;45.50;;;;;;1536779;77;735;-70
2021/10/28 04:51:46;;;;;;;;;;;24.00;45.40;;;;;;1518868;76;816;-67
2021/10/28 04:53:48;;;;;;;;;;;24.10;45.40;;;;;;1534267;76;1934;-67
2021/10/28 04:55:50;;;;;;;;;;;24.10;45.30;;;;;;1528813;76;1130;-67
2021/10/28 04:57:52;;;;;;;;;;;24.20;45.20;;;;;;1535333;76;807;-67
2021/10/28 04:59:54;;;;;;;;;;;24.20;45.20;;;;;;1536780;77;796;-66
2021/10/28 05:01:57;;;;;;;;;;;24.20;45.10;;;;;;1535580;76;735;-66
2021/10/28 05:03:59;;;;;;;;;;;24.10;45.10;;;;;;1532210;76;835;-64
2021/10/28 05:06:01;;;;;;;;;;;24.00;45.10;;;;;;1527582;77;1159;-66
2021/10/28 05:08:02;;;;;;;;;;;23.90;45.20;;;;;;1534091;76;729;-65
2021/10/28 05:10:05;;;;;;;;;;;23.90;45.30;;;;;;1536195;77;690;-70
2021/10/28 05:12:07;;;;;;;;;;;24.00;45.30;;;;;;1534169;77;830;-66
2021/10/28 05:14:09;;;;;;;;;;;24.10;45.30;;;;;;1536680;76;1937;-72
2021/10/28 05:16:11;;;;;;;;;;;24.10;45.20;;;;;;1517138;76;1141;-70
2021/10/28 05:18:13;;;;;;;;;;;24.00;45.20;;;;;;1531973;76;782;-72
2021/10/28 05:20:15;;;;;;;;;;;24.10;45.20;;;;;;1536658;77;836;-76
2021/10/28 05:22:18;;;;;;;;;;;24.20;45.20;;;;;;1534627;76;707;-66
2021/10/28 05:24:20;;;;;;;;;;;24.20;45.20;;;;;;1536654;77;789;-65
2021/10/28 05:26:22;;;;;;;;;;;24.20;45.20;;;;;;1536531;77;1135;-66
2021/10/28 05:28:24;;;;;;;;;;;24.20;45.20;;;;;;1536588;76;655;-68
2021/10/28 05:30:26;;;;;;;;;;;24.20;45.30;;;;;;1536001;76;747;-67
2021/10/28 05:32:28;;;;;;;;;;;24.20;45.40;;;;;;1536472;77;791;-66
2021/10/28 05:34:30;;;;;;;;;;;24.10;45.40;;;;;;1536558;76;1945;-66
2021/10/28 05:36:32;;;;;;;;;;;24.20;45.30;;;;;;1536727;77;1071;-67
2021/10/28 05:38:34;;;;;;;;;;;24.30;45.10;;;;;;1535408;76;740;-69
2021/10/28 05:40:35;;;;;;;;;;;24.20;45.00;;;;;;1535924;77;755;-66
2021/10/28 05:42:42;;;;;;;;;;;24.20;45.10;;;;;;1536624;76;793;-66
2021/10/28 05:44:41;;;;;;;;;;;24.20;45.20;;;;;;1532643;77;1691;-66
2021/10/28 05:46:43;;;;;;;;;;;24.10;45.20;;;;;;1529863;77;1108;-69
2021/10/28 05:48:45;;;;;;;;;;;24.10;45.20;;;;;;1535346;77;741;-68
2021/10/28 05:50:48;;;;;;;;;;;24.00;45.10;;;;;;1536347;76;747;-69
2021/10/28 05:52:52;;;;;;;;;;;24.10;45.20;;;;;;1536617;77;707;-67
2021/10/28 05:54:53;;;;;;;;;;;24.00;45.10;;;;;;1536503;76;2098;-68
2021/10/28 05:56:55;;;;;;;;;;;24.00;45.10;;;;;;1535153;77;1190;-68
2021/10/28 05:58:57;;;;;;;;;;;24.00;45.10;;;;;;1535452;77;807;-68
2021/10/28 06:01:01;;;;;;;;;;;23.90;45.10;;;;;;1536671;77;755;-68
2021/10/28 06:03:03;;;;;;;;;;;23.90;45.10;;;;;;1536284;77;1507;-65
2021/10/28 06:05:05;;;;;;;;;;;23.90;45.10;;;;;;1536647;76;1174;-67
2021/10/28 06:07:07;;;;;;;;;;;23.90;45.10;;;;;;1535997;77;792;-68
2021/10/28 06:09:08;;;;;;;;;;;23.90;45.10;;;;;;1536426;77;718;-67
2021/10/28 06:11:10;;;;;;;;;;;24.00;44.90;;;;;;1535446;77;786;-67
2021/10/28 06:13:12;;;;;;;;;;;23.90;44.90;;;;;;1533225;77;782;-68
2021/10/28 06:15:14;;;;;;;;;;;23.80;44.60;;;;;;1536412;77;1949;-68
2021/10/28 06:17:18;;;;;;;;;;;23.80;44.00;;;;;;1525847;77;810;-68
2021/10/28 06:19:20;;;;;;;;;;;23.70;43.60;;;;;;1535884;77;826;-68
2021/10/28 06:21:25;;;;;;;;;;;23.70;43.30;;;;;;1536517;77;690;-68
2021/10/28 06:23:25;;;;;;;;;;;23.70;43.00;;;;;;1536253;76;1528;-68
2021/10/28 06:25:27;;;;;;;;;;;23.70;42.80;;;;;;1536492;76;1135;-68
2021/10/28 06:27:29;;;;;;;;;;;23.60;42.40;;;;;;1534024;77;714;-69
2021/10/28 06:29:31;;;;;;;;;;;23.50;42.30;;;;;;1535609;76;740;-68
2021/10/28 06:31:32;;;;;;;;;;;23.50;42.20;;;;;;1536453;76;744;-68
2021/10/28 06:33:36;;;;;;;;;;;23.50;42.00;;;;;;1536408;76;780;-68
2021/10/28 06:35:39;;;;;;;;;;;23.50;41.80;;;;;;1536478;76;1918;-68
2021/10/28 06:37:46;;;;;;;;;;;23.40;41.50;;;;;;1535660;76;738;-68
2021/10/28 06:39:44;;;;;;;;;;;23.40;41.30;;;;;;1535730;76;1505;-69
2021/10/28 06:41:46;;;;;;;;;;;23.30;41.30;;;;;;1533543;77;729;-68
2021/10/28 06:43:48;;;;;;;;;;;23.30;41.20;;;;;;1530340;77;816;-68
2021/10/28 06:45:50;;;;;;;;;;;23.30;41.10;;;;;;1535558;76;1099;-69
2021/10/28 06:47:51;;;;;;;;;;;23.30;41.10;;;;;;1536557;76;748;-69
2021/10/28 06:49:55;;;;;;;;;;;23.20;40.90;;;;;;1535777;76;765;-69
2021/10/28 06:51:57;;;;;;;;;;;23.20;40.80;;;;;;1533637;76;854;-69
2021/10/28 06:54:23;;;;;;;;;;;23.20;40.80;;;;;;1535293;76;817;-69
2021/10/28 06:56:35;;;;;;;;;;;23.20;40.80;;;;;;1525182;76;1932;-68
2021/10/28 07:02:41;;;;;;;;;;;23.20;41.10;;;;;;1529100;77;1712;-67
2021/10/28 07:04:41;;;;;;;;;;;23.20;41.00;;;;;;1535521;77;1685;-68
2021/10/28 07:06:43;;;;;;;;;;;23.20;41.20;;;;;;1535401;76;1142;-68
2021/10/28 07:08:50;;;;;;;;;;;23.20;41.60;;;;;;1536654;77;714;-67
2021/10/28 07:10:56;;;;;;;;;;;23.20;41.80;;;;;;1536054;76;1603;-67
2021/10/28 07:13:04;;;;;;;;;;;23.20;41.90;;;;;;1524814;76;1601;-71
2021/10/28 07:15:09;;;;;;;;;;;23.20;41.60;;;;;;1519203;77;1933;-68
2021/10/28 07:17:21;;;;;;;;;;;23.20;41.60;;;;;;1513225;77;1589;-68
2021/10/28 07:20:23;;;;;;;;;;;23.10;41.70;;;;;;1526750;77;1735;-68
2021/10/28 07:21:45;;;;;;;;;;;23.10;41.80;;;;;;1502166;76;1678;-69
2021/10/28 07:26:03;;;;;;;;;;;23.10;41.70;;;;;;1516579;77;1199;-68
2021/10/28 07:30:48;;;;;;;;;;;23.10;41.40;;;;;;1484659;77;1184;-72
2021/10/28 07:56:04;;;;;;;;;;;23.00;41.40;;;;;;1533722;76;1932;-68
2021/10/28 07:58:01;;;;;;;;;;;23.10;41.10;;;;;;1530374;77;1527;-69
2021/10/28 08:15:45;;;;;;;;;;;23.30;39.50;;;;;;1538786;74;225997;-75
2021/10/28 08:20:04;;;;;;;;;;;23.40;38.50;;;;;;1551880;76;864;-75
2021/10/28 08:29:33;;;;;;;;;;;23.30;38.70;;;;;;1547764;76;1641;-75
2021/10/28 08:30:44;;;;;;;;;;;23.30;38.90;;;;;;1531525;76;1327;-75
2021/10/28 08:32:46;;;;;;;;;;;23.30;38.90;;;;;;1547312;76;743;-75
2021/10/28 08:34:49;;;;;;;;;;;23.20;38.80;;;;;;1558900;75;1925;-75
2021/10/28 08:36:52;;;;;;;;;;;23.20;38.80;;;;;;1547996;76;725;-75
2021/10/28 08:38:55;;;;;;;;;;;23.20;38.90;;;;;;1549357;76;1101;-75
2021/10/28 08:40:56;;;;;;;;;;;23.20;38.90;;;;;;1553733;76;735;-76
2021/10/28 08:42:58;;;;;;;;;;;23.20;39.20;;;;;;1548406;75;610;-76
2021/10/28 08:45:00;;;;;;;;;;;23.20;39.10;;;;;;1546796;75;922;-76
2021/10/28 08:47:02;;;;;;;;;;;23.20;39.10;;;;;;1550366;76;723;-76
2021/10/28 08:49:07;;;;;;;;;;;23.10;39.20;;;;;;1549297;75;1153;-76
2021/10/28 08:53:25;;;;;;;;;;;23.10;39.30;;;;;;1547348;76;820;-76
2021/10/28 09:25:12;;;;;;;;;;;22.80;38.60;;;;;;1559618;75;1654;-76
2021/10/28 09:27:32;;;;;;;;;;;22.90;38.80;;;;;;1563864;75;757;-76
2021/10/28 09:31:54;;;;;;;;;;;22.90;38.70;;;;;;1561969;76;869;-79
2021/10/28 09:43:33;;;;;;;;;;;22.80;38.20;;;;;;1522637;75;1927;-76
2021/10/28 09:45:40;;;;;;;;;;;22.70;38.40;;;;;;1553259;76;1667;-76
2021/10/28 09:47:52;;;;;;;;;;;22.70;38.40;;;;;;1555113;76;1089;-76
2021/10/28 09:49:56;;;;;;;;;;;22.80;38.60;;;;;;1553457;76;1482;-75
2021/10/28 09:51:56;;;;;;;;;;;22.70;38.60;;;;;;1556461;76;1446;-74
2021/10/28 09:58:35;;;;;;;;;;;22.80;38.70;;;;;;1555795;75;1653;-74
2021/10/28 10:00:40;;;;;;;;;;;22.80;38.60;;;;;;1563405;76;709;-75
2021/10/28 10:02:51;;;;;;;;;;;22.80;38.60;;;;;;1554942;76;727;-76
2021/10/28 10:04:49;;;;;;;;;;;22.90;38.90;;;;;;1557597;76;1147;-75
2021/10/28 10:06:52;;;;;;;;;;;22.80;38.70;;;;;;1559482;76;765;-75
2021/10/28 10:08:55;;;;;;;;;;;22.80;38.80;;;;;;1563542;76;1142;-74
2021/10/28 10:10:57;;;;;;;;;;;22.90;38.90;;;;;;1554579;76;646;-75
2021/10/28 10:12:59;;;;;;;;;;;22.90;38.90;;;;;;1560401;75;696;-75
2021/10/28 10:15:02;;;;;;;;;;;22.90;38.90;;;;;;1563028;76;1938;-75
2021/10/28 10:17:04;;;;;;;;;;;23.00;38.70;;;;;;1567179;75;1008;-76
2021/10/28 10:19:06;;;;;;;;;;;23.00;38.60;;;;;;1572590;74;1153;-75
2021/10/28 10:21:21;;;;;;;;;;;23.10;38.80;;;;;;1568422;75;784;-75
2021/10/28 10:25:49;;;;;;;;;;;23.00;38.40;;;;;;1567817;74;1666;-75
2021/10/28 10:28:41;;;;;;;;;;;23.10;38.60;;;;;;1568631;74;1192;-75
2021/10/28 11:02:51;;;;;;;;;;;23.10;38.50;;;;;;1563842;76;1023;-76
2021/10/28 11:03:10;;;;;;;;;;;23.10;38.20;;;;;;1568661;74;1638;-75
2021/10/28 11:05:29;;;;;;;;;;;23.20;38.30;;;;;;1567396;74;1060;-76
2021/10/28 11:19:48;;;;;;;;;;;23.10;38.40;;;;;;1563940;75;1651;-75
2021/10/28 11:30:46;;;;;;;;;;;23.10;38.40;;;;;;1561280;75;864;-75
2021/10/28 12:21:56;;;;;;;;;;;23.00;38.40;;;;;;1569849;75;1699;-76
2021/10/28 12:23:43;;;;;;;;;;;22.90;38.50;;;;;;1564351;74;1057;-76
2021/10/28 12:28:26;;;;;;;;;;;22.90;38.50;;;;;;1567731;75;1151;-76
2021/10/28 12:47:01;;;;;;;;;;;22.90;38.50;;;;;;1568057;76;888;-75
2021/10/28 12:49:04;;;;;;;;;;;22.90;38.50;;;;;;1558741;75;1132;-75
2021/10/28 13:02:41;;;;;;;;;;;22.90;38.40;;;;;;1532900;76;1681;-76
2021/10/28 13:04:16;;;;;;;;;;;22.90;38.40;;;;;;1552088;76;1425;-75
2021/10/28 13:48:28;;;;;;;;;;;22.90;38.70;;;;;;1565401;75;1107;-76
2021/10/28 13:50:20;;;;;;;;;;;22.90;38.70;;;;;;1547891;76;1245;-77
2021/10/28 13:54:45;;;;;;;;;;;22.90;38.70;;;;;;1558034;75;1240;-76
2021/10/28 14:15:26;;;;;;;;;;;23.10;38.30;;;;;;1567752;75;1647;-78
2021/10/28 14:21:42;;;;;;;;;;;23.20;37.90;;;;;;1557953;76;1600;-79
2021/10/28 14:30:52;;;;;;;;;;;23.20;37.60;;;;;;1568308;75;1623;-78
2021/10/28 14:32:42;;;;;;;;;;;23.20;37.40;;;;;;1566242;75;1008;-77
2021/10/28 14:39:13;;;;;;;;;;;23.30;37.60;;;;;;1511791;77;859;-54
2021/10/28 15:02:18;;;;;;;;;;;23.20;37.40;;;;;;1512694;77;862;-55
2021/10/28 15:29:55;;;;;;;;;;;23.50;37.70;;;;;;1441543;82;1256;-55
2021/10/28 15:39:00;;;;;;;;;;;23.40;37.60;;;;;;1513547;77;720;-54
2021/10/28 15:41:11;;;;;;;;;;;23.40;37.70;;;;;;1512914;77;1520;-56
2021/10/28 15:43:19;;;;;;;;;;;23.50;38.00;;;;;;1518261;76;1725;-56
2021/10/28 15:56:48;;;;;;;;;;;23.20;37.90;;;;;;1510910;77;1894;-54
2021/10/28 16:21:54;;;;;;;;;;;23.20;38.40;;;;;;1513222;77;1662;-54
2021/10/28 16:23:56;;;;;;;;;;;23.20;38.40;;;;;;1513412;77;540;-55
2021/10/28 16:25:59;;;;;;;;;;;23.10;38.40;;;;;;1512401;77;1093;-55
2021/10/28 16:28:01;;;;;;;;;;;23.10;38.50;;;;;;1513432;77;706;-55
2021/10/28 16:30:04;;;;;;;;;;;23.10;38.60;;;;;;1511919;77;652;-54
2021/10/28 16:32:06;;;;;;;;;;;23.10;38.50;;;;;;1512501;77;816;-55
2021/10/28 16:34:08;;;;;;;;;;;23.20;38.60;;;;;;1512556;77;790;-55
2021/10/28 16:36:10;;;;;;;;;;;23.20;38.60;;;;;;1509324;77;1104;-55
2021/10/28 16:38:12;;;;;;;;;;;23.10;38.60;;;;;;1510609;77;1919;-54
2021/10/28 16:40:14;;;;;;;;;;;23.10;38.70;;;;;;1511722;77;735;-55
2021/10/28 16:42:16;;;;;;;;;;;23.10;38.60;;;;;;1513715;77;741;-55
2021/10/28 16:44:18;;;;;;;;;;;23.10;38.70;;;;;;1512552;77;806;-55
2021/10/28 16:46:20;;;;;;;;;;;23.10;38.70;;;;;;1513410;77;1057;-56
2021/10/28 16:48:22;;;;;;;;;;;23.10;38.80;;;;;;1512461;77;707;-56
2021/10/28 16:50:25;;;;;;;;;;;23.10;38.80;;;;;;1513359;78;728;-54
2021/10/28 16:52:27;;;;;;;;;;;23.10;38.60;;;;;;1512975;77;754;-55
2021/10/28 16:54:31;;;;;;;;;;;23.00;38.60;;;;;;1513462;77;698;-56
2021/10/28 16:56:32;;;;;;;;;;;23.00;38.60;;;;;;1511703;77;1925;-56
2021/10/28 16:58:34;;;;;;;;;;;23.10;38.60;;;;;;1513030;77;788;-56
2021/10/28 17:00:36;;;;;;;;;;;23.00;38.40;;;;;;1512207;77;775;-54
2021/10/28 17:02:38;;;;;;;;;;;23.10;38.50;;;;;;1509171;78;718;-56
2021/10/28 17:04:40;;;;;;;;;;;23.10;38.50;;;;;;1512467;77;1156;-54
2021/10/28 17:06:42;;;;;;;;;;;23.00;38.30;;;;;;1512966;77;710;-54
2021/10/28 17:08:44;;;;;;;;;;;23.10;38.40;;;;;;1513331;78;715;-54
2021/10/28 17:10:46;;;;;;;;;;;23.00;38.30;;;;;;1512909;77;781;-55
2021/10/28 17:12:48;;;;;;;;;;;23.10;38.40;;;;;;1512553;77;727;-56
2021/10/28 17:14:50;;;;;;;;;;;23.00;38.40;;;;;;1511254;77;1176;-54
2021/10/28 17:16:52;;;;;;;;;;;23.00;38.40;;;;;;1516868;77;1915;-54
2021/10/28 17:18:54;;;;;;;;;;;23.00;38.40;;;;;;1513108;77;734;-54
2021/10/28 17:20:59;;;;;;;;;;;23.00;38.30;;;;;;1512497;77;813;-56
2021/10/28 17:23:00;;;;;;;;;;;23.00;38.30;;;;;;1512247;77;1456;-57
2021/10/28 17:25:04;;;;;;;;;;;23.00;38.30;;;;;;1509680;77;1054;-54
2021/10/28 17:27:06;;;;;;;;;;;23.00;38.30;;;;;;1512355;77;776;-55
2021/10/28 17:29:09;;;;;;;;;;;23.00;38.40;;;;;;1513335;77;767;-53
2021/10/28 17:31:11;;;;;;;;;;;23.00;38.50;;;;;;1513149;77;717;-55
2021/10/28 17:33:13;;;;;;;;;;;23.00;38.60;;;;;;1511088;77;703;-55
2021/10/28 17:35:15;;;;;;;;;;;23.00;38.60;;;;;;1512679;76;1162;-55
2021/10/28 17:37:17;;;;;;;;;;;23.00;38.70;;;;;;1512738;77;1929;-56
2021/10/28 17:39:21;;;;;;;;;;;23.00;38.80;;;;;;1512212;77;668;-55
2021/10/28 17:41:22;;;;;;;;;;;23.00;38.80;;;;;;1509739;77;736;-56
2021/10/28 17:43:29;;;;;;;;;;;23.00;38.90;;;;;;1512068;77;740;-53
2021/10/28 17:45:30;;;;;;;;;;;22.90;38.90;;;;;;1512913;77;1458;-54
2021/10/28 17:47:32;;;;;;;;;;;23.00;39.00;;;;;;1512319;77;1485;-56
2021/10/28 17:49:36;;;;;;;;;;;23.00;38.90;;;;;;1512152;77;698;-56
2021/10/28 17:51:38;;;;;;;;;;;23.00;38.90;;;;;;1513513;77;1683;-56
2021/10/28 17:53:40;;;;;;;;;;;23.00;38.80;;;;;;1513267;77;719;-55
2021/10/28 17:55:42;;;;;;;;;;;23.00;38.80;;;;;;1512668;77;1086;-56
2021/10/28 17:57:46;;;;;;;;;;;23.00;38.90;;;;;;1513078;77;1921;-54
2021/10/28 17:59:47;;;;;;;;;;;23.00;38.90;;;;;;1513003;77;767;-54
2021/10/28 18:01:49;;;;;;;;;;;23.00;39.00;;;;;;1512616;77;690;-55
2021/10/28 18:03:56;;;;;;;;;;;23.00;38.90;;;;;;1513068;77;650;-54
2021/10/28 18:05:55;;;;;;;;;;;23.00;39.20;;;;;;1513451;77;1562;-55
2021/10/28 18:07:56;;;;;;;;;;;23.10;39.50;;;;;;1509459;77;683;-56
2021/10/28 18:09:59;;;;;;;;;;;23.10;39.70;;;;;;1513130;77;714;-54
2021/10/28 18:12:01;;;;;;;;;;;23.10;40.20;;;;;;1512139;77;797;-56
2021/10/28 18:14:10;;;;;;;;;;;23.00;40.50;;;;;;1513125;77;786;-57
2021/10/28 18:16:06;;;;;;;;;;;22.90;41.00;;;;;;1513822;77;1633;-55
2021/10/28 18:18:08;;;;;;;;;;;22.90;41.40;;;;;;1512770;78;1961;-55
2021/10/28 18:20:10;;;;;;;;;;;22.90;41.80;;;;;;1512951;77;674;-54
2021/10/28 18:22:12;;;;;;;;;;;22.90;42.30;;;;;;1513227;77;708;-55
2021/10/28 18:24:16;;;;;;;;;;;22.80;42.40;;;;;;1512683;77;802;-55
2021/10/28 18:26:19;;;;;;;;;;;22.90;42.60;;;;;;1520901;77;2501;-57
2021/10/28 18:28:21;;;;;;;;;;;22.90;42.60;;;;;;1510844;77;784;-54
2021/10/28 18:30:23;;;;;;;;;;;22.90;42.60;;;;;;1496935;78;675;-54
2021/10/28 18:32:26;;;;;;;;;;;23.00;43.30;;;;;;1563900;76;766;-58
2021/10/28 18:34:28;;;;;;;;;;;22.90;43.60;;;;;;1563211;75;652;-58
2021/10/28 18:36:31;;;;;;;;;;;23.00;43.80;;;;;;1563611;75;1065;-58
2021/10/28 18:38:33;;;;;;;;;;;22.90;44.00;;;;;;1564368;75;1903;-57
2021/10/28 18:40:36;;;;;;;;;;;23.00;44.50;;;;;;1564561;75;780;-55
2021/10/28 18:42:38;;;;;;;;;;;23.00;44.50;;;;;;1558911;75;811;-56
2021/10/28 18:44:40;;;;;;;;;;;23.00;44.80;;;;;;1565535;74;1154;-55
2021/10/28 18:46:41;;;;;;;;;;;23.00;45.00;;;;;;1564508;74;737;-53
2021/10/28 18:48:44;;;;;;;;;;;23.00;45.10;;;;;;1564884;75;726;-58
2021/10/28 18:50:45;;;;;;;;;;;23.00;45.10;;;;;;1565076;75;773;-56
2021/10/28 18:52:47;;;;;;;;;;;23.10;45.20;;;;;;1564562;75;691;-56
2021/10/28 18:54:51;;;;;;;;;;;23.10;45.10;;;;;;1565654;76;1141;-58
2021/10/28 18:56:53;;;;;;;;;;;23.10;45.20;;;;;;1563829;75;736;-56
2021/10/28 18:58:55;;;;;;;;;;;23.10;44.70;;;;;;1561214;75;1946;-56
2021/10/28 19:00:56;;;;;;;;;;;23.20;44.50;;;;;;1564000;75;718;-55
2021/10/28 19:02:59;;;;;;;;;;;23.20;44.40;;;;;;1564285;75;694;-54
2021/10/28 19:05:02;;;;;;;;;;;23.20;44.60;;;;;;1566171;75;1149;-55
2021/10/28 19:07:04;;;;;;;;;;;23.30;44.60;;;;;;1545833;75;763;-55
2021/10/28 19:09:06;;;;;;;;;;;23.20;44.70;;;;;;1566223;76;682;-56
2021/10/28 19:11:09;;;;;;;;;;;23.20;44.60;;;;;;1565647;76;762;-54
2021/10/28 19:13:11;;;;;;;;;;;23.40;44.20;;;;;;1566655;76;778;-56
2021/10/28 19:15:15;;;;;;;;;;;23.60;44.00;;;;;;1564865;75;1173;-55
2021/10/28 19:17:16;;;;;;;;;;;23.50;44.00;;;;;;1565119;75;1419;-54
2021/10/28 19:19:18;;;;;;;;;;;23.50;44.10;;;;;;1565025;75;1959;-53
2021/10/28 19:21:21;;;;;;;;;;;23.50;44.30;;;;;;1564521;75;663;-55
2021/10/28 19:23:23;;;;;;;;;;;23.60;44.40;;;;;;1564029;75;667;-54
2021/10/28 19:25:24;;;;;;;;;;;23.50;44.40;;;;;;1559577;75;1122;-55
2021/10/28 19:27:26;;;;;;;;;;;23.50;44.40;;;;;;1564115;75;660;-53
2021/10/28 19:29:30;;;;;;;;;;;23.60;44.70;;;;;;1565669;75;777;-54
2021/10/28 19:31:35;;;;;;;;;;;23.60;44.60;;;;;;1564640;75;711;-56
2021/10/28 19:33:42;;;;;;;;;;;23.60;44.80;;;;;;1565051;75;1458;-57
2021/10/28 19:35:43;;;;;;;;;;;23.60;45.00;;;;;;1564435;75;1559;-56
2021/10/28 19:38:01;;;;;;;;;;;23.60;44.70;;;;;;1566561;76;1916;-56
2021/10/28 19:40:10;;;;;;;;;;;23.70;44.70;;;;;;1562973;76;1530;-53
2021/10/28 19:46:37;;;;;;;;;;;23.90;44.40;;;;;;1564316;75;1656;-55
2021/10/28 19:48:39;;;;;;;;;;;23.90;44.20;;;;;;1565639;75;765;-53
2021/10/28 19:50:41;;;;;;;;;;;24.00;44.00;;;;;;1564579;75;733;-55
2021/10/28 19:52:43;;;;;;;;;;;24.00;43.90;;;;;;1560102;75;741;-54
2021/10/28 19:54:50;;;;;;;;;;;24.00;43.80;;;;;;1564631;75;1114;-55
2021/10/28 19:56:50;;;;;;;;;;;24.00;43.70;;;;;;1561922;75;1409;-55
2021/10/28 19:58:55;;;;;;;;;;;24.00;43.70;;;;;;1564147;75;1926;-57
2021/10/28 20:01:02;;;;;;;;;;;24.00;43.70;;;;;;1564296;75;1544;-53
2021/10/28 20:05:27;;;;;;;;;;;24.00;43.70;;;;;;1564153;75;1129;-54
2021/10/28 20:07:54;;;;;;;;;;;24.00;43.80;;;;;;1558265;75;1540;-55
2021/10/28 20:14:24;;;;;;;;;;;24.00;43.90;;;;;;1564963;75;1683;-54
2021/10/28 20:20:57;;;;;;;;;;;23.90;44.10;;;;;;1586392;73;1650;-60
2021/10/28 20:22:59;;;;;;;;;;;23.90;44.20;;;;;;1579088;73;728;-60